DLH6MM EDDB-EDDF
Flight info
| Callsign | DLH6MM |
|---|---|
| Flight time | 0h 55m |
| Altitude | 30000 |
| Route | KISUC1B/06L KISUC Z117 ODLUN DCT ORTAG T177 ODIPI T157 KERAX KERAX5A |
| Aircraft | A319/M-SDE2E3FGILORWXYZ/HB1 |
Departure
| Time | 2026-05-06 12:52 |
|---|---|
| Airport | Berlin Brandenburg Airport (EDDB) |
Arrival
| Time | 2026-05-06 13:48 |
|---|---|
| Airport | Frankfurt Main Airport (EDDF) |
| Time | Latitude | Longitude | Altitude | Speed | Heading |
|---|---|---|---|---|---|
| 2026-05-06 12:07 | 52.36541 | 13.50496 | 155 ft | 0 kts | 69° |
| 2026-05-06 12:43 | 52.36533 | 13.50462 | 155 ft | 4 kts | 69° |
| 2026-05-06 12:43 | 52.36524 | 13.50425 | 155 ft | 1 kts | 69° |
| 2026-05-06 12:44 | 52.36514 | 13.50390 | 155 ft | 4 kts | 46° |
| 2026-05-06 12:44 | 52.36494 | 13.50371 | 155 ft | 4 kts | 351° |
| 2026-05-06 12:44 | 52.36485 | 13.50374 | 155 ft | 0 kts | 339° |
| 2026-05-06 12:48 | 52.36486 | 13.50374 | 155 ft | 0 kts | 339° |
| 2026-05-06 12:48 | 52.36501 | 13.50358 | 155 ft | 6 kts | 319° |
| 2026-05-06 12:48 | 52.36536 | 13.50297 | 154 ft | 7 kts | 313° |
| 2026-05-06 12:48 | 52.36576 | 13.50238 | 155 ft | 8 kts | 328° |
| 2026-05-06 12:49 | 52.36633 | 13.50200 | 155 ft | 9 kts | 340° |
| 2026-05-06 12:49 | 52.36698 | 13.50150 | 155 ft | 12 kts | 320° |
| 2026-05-06 12:49 | 52.36753 | 13.50049 | 155 ft | 12 kts | 324° |
| 2026-05-06 12:49 | 52.36774 | 13.49924 | 155 ft | 13 kts | 250° |
| 2026-05-06 12:50 | 52.36740 | 13.49784 | 155 ft | 14 kts | 248° |
| 2026-05-06 12:50 | 52.36705 | 13.49635 | 154 ft | 14 kts | 249° |
| 2026-05-06 12:50 | 52.36705 | 13.49509 | 154 ft | 12 kts | 309° |
| 2026-05-06 12:50 | 52.36780 | 13.49450 | 155 ft | 13 kts | 340° |
| 2026-05-06 12:51 | 52.36864 | 13.49472 | 155 ft | 14 kts | 37° |
| 2026-05-06 12:51 | 52.36942 | 13.49570 | 155 ft | 15 kts | 38° |
| 2026-05-06 12:51 | 52.37023 | 13.49679 | 155 ft | 16 kts | 40° |
| 2026-05-06 12:51 | 52.37090 | 13.49854 | 155 ft | 31 kts | 68° |
| 2026-05-06 12:52 | 52.37269 | 13.50602 | 155 ft | 105 kts | 68° |
| 2026-05-06 12:52 | 52.37601 | 13.51984 | 265 ft | 148 kts | 66° |
| 2026-05-06 12:52 | 52.37956 | 13.53543 | 972 ft | 147 kts | 67° |
| 2026-05-06 12:52 | 52.38326 | 13.55133 | 1623 ft | 156 kts | 66° |
| 2026-05-06 12:53 | 52.38753 | 13.56916 | 2082 ft | 179 kts | 66° |
| 2026-05-06 12:53 | 52.39246 | 13.58967 | 2530 ft | 204 kts | 66° |
| 2026-05-06 12:53 | 52.39988 | 13.61109 | 3064 ft | 229 kts | 51° |
| 2026-05-06 12:53 | 52.41182 | 13.63014 | 3699 ft | 252 kts | 34° |
| 2026-05-06 12:54 | 52.42751 | 13.64325 | 4660 ft | 261 kts | 19° |
| 2026-05-06 12:54 | 52.44480 | 13.65346 | 5702 ft | 269 kts | 17° |
| 2026-05-06 12:54 | 52.46301 | 13.66413 | 6678 ft | 279 kts | 17° |
| 2026-05-06 12:54 | 52.48122 | 13.67490 | 7704 ft | 284 kts | 17° |
| 2026-05-06 12:55 | 52.50045 | 13.68265 | 8689 ft | 287 kts | 358° |
| 2026-05-06 12:55 | 52.51988 | 13.67749 | 9699 ft | 283 kts | 333° |
| 2026-05-06 12:55 | 52.53648 | 13.66006 | 10385 ft | 291 kts | 310° |
| 2026-05-06 12:55 | 52.54744 | 13.63168 | 10962 ft | 300 kts | 285° |
| 2026-05-06 12:56 | 52.55015 | 13.59778 | 11825 ft | 303 kts | 263° |
| 2026-05-06 12:56 | 52.54415 | 13.56470 | 12763 ft | 307 kts | 241° |
| 2026-05-06 12:56 | 52.53281 | 13.53483 | 13720 ft | 310 kts | 237° |
| 2026-05-06 12:56 | 52.52105 | 13.50487 | 14588 ft | 314 kts | 237° |
| 2026-05-06 12:57 | 52.50925 | 13.47452 | 15453 ft | 317 kts | 237° |
| 2026-05-06 12:57 | 52.49732 | 13.44380 | 16316 ft | 321 kts | 237° |
| 2026-05-06 12:57 | 52.48519 | 13.41272 | 17173 ft | 325 kts | 237° |
| 2026-05-06 12:57 | 52.47293 | 13.38124 | 18019 ft | 330 kts | 237° |
| 2026-05-06 12:58 | 52.46055 | 13.34936 | 18754 ft | 333 kts | 237° |
| 2026-05-06 12:58 | 52.44797 | 13.31717 | 19496 ft | 337 kts | 236° |
| 2026-05-06 12:58 | 52.43531 | 13.28472 | 20232 ft | 340 kts | 237° |
| 2026-05-06 12:58 | 52.42254 | 13.25190 | 20987 ft | 343 kts | 237° |
| 2026-05-06 12:59 | 52.40958 | 13.21883 | 21733 ft | 347 kts | 236° |
| 2026-05-06 12:59 | 52.39643 | 13.18545 | 22480 ft | 350 kts | 236° |
| 2026-05-06 12:59 | 52.38317 | 13.15174 | 23105 ft | 354 kts | 236° |
| 2026-05-06 12:59 | 52.36982 | 13.11789 | 23384 ft | 354 kts | 236° |
| 2026-05-06 13:00 | 52.35528 | 13.08516 | 23750 ft | 358 kts | 230° |
| 2026-05-06 13:00 | 52.33945 | 13.05366 | 24424 ft | 360 kts | 231° |
| 2026-05-06 13:00 | 52.32356 | 13.02190 | 25054 ft | 362 kts | 230° |
| 2026-05-06 13:00 | 52.30747 | 12.99006 | 25668 ft | 365 kts | 230° |
| 2026-05-06 13:01 | 52.29112 | 12.95813 | 26257 ft | 367 kts | 230° |
| 2026-05-06 13:01 | 52.27479 | 12.92594 | 26903 ft | 370 kts | 230° |
| 2026-05-06 13:01 | 52.25834 | 12.89343 | 27460 ft | 373 kts | 230° |
| 2026-05-06 13:01 | 52.24180 | 12.86066 | 28034 ft | 376 kts | 230° |
| 2026-05-06 13:02 | 52.22516 | 12.82762 | 28610 ft | 378 kts | 230° |
| 2026-05-06 13:02 | 52.20837 | 12.79434 | 29195 ft | 381 kts | 230° |
| 2026-05-06 13:02 | 52.19152 | 12.76120 | 29694 ft | 373 kts | 230° |
| 2026-05-06 13:02 | 52.17539 | 12.72957 | 29802 ft | 354 kts | 230° |
| 2026-05-06 13:03 | 52.15999 | 12.69918 | 29808 ft | 343 kts | 230° |
| 2026-05-06 13:03 | 52.12992 | 12.64009 | 29804 ft | 337 kts | 230° |
| 2026-05-06 13:04 | 52.10002 | 12.58130 | 29802 ft | 337 kts | 230° |
| 2026-05-06 13:04 | 52.07024 | 12.52296 | 29799 ft | 333 kts | 230° |
| 2026-05-06 13:05 | 52.04068 | 12.46531 | 29796 ft | 332 kts | 230° |
| 2026-05-06 13:05 | 52.01116 | 12.40792 | 29787 ft | 331 kts | 230° |
| 2026-05-06 13:06 | 51.98167 | 12.35057 | 29796 ft | 331 kts | 229° |
| 2026-05-06 13:06 | 51.95215 | 12.29332 | 29824 ft | 331 kts | 230° |
| 2026-05-06 13:07 | 51.92251 | 12.23598 | 29773 ft | 333 kts | 229° |
| 2026-05-06 13:07 | 51.89264 | 12.17829 | 29764 ft | 335 kts | 230° |
| 2026-05-06 13:08 | 51.86264 | 12.12053 | 29776 ft | 335 kts | 229° |
| 2026-05-06 13:08 | 51.83292 | 12.06337 | 29776 ft | 334 kts | 229° |
| 2026-05-06 13:09 | 51.80302 | 12.00611 | 29776 ft | 333 kts | 229° |
| 2026-05-06 13:09 | 51.77313 | 11.94891 | 29777 ft | 333 kts | 229° |
| 2026-05-06 13:10 | 51.74318 | 11.89187 | 29778 ft | 333 kts | 229° |
| 2026-05-06 13:10 | 51.71332 | 11.83485 | 29780 ft | 333 kts | 229° |
| 2026-05-06 13:11 | 51.68338 | 11.77796 | 29769 ft | 333 kts | 228° |
| 2026-05-06 13:11 | 51.65344 | 11.72127 | 29778 ft | 332 kts | 228° |
| 2026-05-06 13:12 | 51.62357 | 11.66480 | 29776 ft | 331 kts | 228° |
| 2026-05-06 13:12 | 51.59361 | 11.60830 | 29773 ft | 332 kts | 229° |
| 2026-05-06 13:13 | 51.56357 | 11.55150 | 29759 ft | 334 kts | 229° |
| 2026-05-06 13:13 | 51.53325 | 11.49457 | 29754 ft | 336 kts | 229° |
| 2026-05-06 13:14 | 51.50277 | 11.43747 | 29748 ft | 337 kts | 229° |
| 2026-05-06 13:14 | 51.47221 | 11.38014 | 29745 ft | 338 kts | 228° |
| 2026-05-06 13:15 | 51.44165 | 11.32305 | 29761 ft | 337 kts | 228° |
| 2026-05-06 13:15 | 51.41103 | 11.26628 | 29766 ft | 336 kts | 228° |
| 2026-05-06 13:16 | 51.38075 | 11.20988 | 29772 ft | 336 kts | 228° |
| 2026-05-06 13:16 | 51.35022 | 11.15327 | 29769 ft | 336 kts | 228° |
| 2026-05-06 13:17 | 51.31973 | 11.09680 | 29769 ft | 335 kts | 228° |
| 2026-05-06 13:17 | 51.28914 | 11.04045 | 29768 ft | 335 kts | 227° |
| 2026-05-06 13:18 | 51.25858 | 10.98414 | 29767 ft | 336 kts | 228° |
| 2026-05-06 13:18 | 51.24324 | 10.95596 | 29396 ft | 337 kts | 228° |
| 2026-05-06 13:18 | 51.22779 | 10.92764 | 28775 ft | 339 kts | 228° |
| 2026-05-06 13:18 | 51.21226 | 10.89923 | 28165 ft | 341 kts | 228° |
| 2026-05-06 13:19 | 51.19674 | 10.87083 | 27699 ft | 339 kts | 228° |
| 2026-05-06 13:19 | 51.18135 | 10.84263 | 27240 ft | 336 kts | 229° |
| 2026-05-06 13:19 | 51.16606 | 10.81453 | 26779 ft | 334 kts | 229° |
| 2026-05-06 13:19 | 51.15084 | 10.78666 | 26283 ft | 333 kts | 229° |
| 2026-05-06 13:20 | 51.13562 | 10.75887 | 25775 ft | 333 kts | 229° |
| 2026-05-06 13:20 | 51.12040 | 10.73115 | 25273 ft | 332 kts | 229° |
| 2026-05-06 13:20 | 51.10523 | 10.70359 | 24784 ft | 331 kts | 229° |
| 2026-05-06 13:20 | 51.09011 | 10.67614 | 24300 ft | 329 kts | 229° |
| 2026-05-06 13:21 | 51.07506 | 10.64875 | 23809 ft | 327 kts | 229° |
| 2026-05-06 13:21 | 51.06012 | 10.62161 | 23335 ft | 326 kts | 229° |
| 2026-05-06 13:21 | 51.04522 | 10.59456 | 22780 ft | 324 kts | 230° |
| 2026-05-06 13:21 | 51.03037 | 10.56763 | 22236 ft | 324 kts | 229° |
| 2026-05-06 13:22 | 51.01559 | 10.54084 | 21835 ft | 320 kts | 229° |
| 2026-05-06 13:22 | 51.00100 | 10.51446 | 21766 ft | 317 kts | 229° |
| 2026-05-06 13:22 | 50.98637 | 10.48818 | 21768 ft | 317 kts | 229° |
| 2026-05-06 13:22 | 50.97651 | 10.47048 | 21768 ft | 317 kts | 229° |
| 2026-05-06 13:23 | 50.96190 | 10.44424 | 21764 ft | 317 kts | 229° |
| 2026-05-06 13:23 | 50.94728 | 10.41799 | 21762 ft | 317 kts | 229° |
| 2026-05-06 13:23 | 50.93290 | 10.39211 | 21757 ft | 317 kts | 229° |
| 2026-05-06 13:23 | 50.91839 | 10.36594 | 21751 ft | 316 kts | 229° |
| 2026-05-06 13:24 | 50.90380 | 10.33982 | 21738 ft | 317 kts | 229° |
| 2026-05-06 13:24 | 50.88925 | 10.31368 | 21477 ft | 315 kts | 229° |
| 2026-05-06 13:24 | 50.87477 | 10.28768 | 21204 ft | 315 kts | 229° |
| 2026-05-06 13:24 | 50.86030 | 10.26168 | 20944 ft | 315 kts | 229° |
| 2026-05-06 13:25 | 50.84580 | 10.23575 | 20686 ft | 314 kts | 228° |
| 2026-05-06 13:25 | 50.83126 | 10.20989 | 20431 ft | 314 kts | 228° |
| 2026-05-06 13:25 | 50.81686 | 10.18418 | 20153 ft | 310 kts | 228° |
| 2026-05-06 13:25 | 50.80264 | 10.15870 | 19749 ft | 309 kts | 228° |
| 2026-05-06 13:26 | 50.78843 | 10.13334 | 19347 ft | 307 kts | 228° |
| 2026-05-06 13:26 | 50.77423 | 10.10816 | 18942 ft | 307 kts | 227° |
| 2026-05-06 13:26 | 50.76005 | 10.08308 | 18550 ft | 306 kts | 227° |
| 2026-05-06 13:26 | 50.74596 | 10.05800 | 18156 ft | 305 kts | 227° |
| 2026-05-06 13:27 | 50.73184 | 10.03301 | 17731 ft | 305 kts | 227° |
| 2026-05-06 13:27 | 50.71777 | 10.00813 | 17339 ft | 303 kts | 227° |
| 2026-05-06 13:27 | 50.70380 | 9.98344 | 16962 ft | 301 kts | 227° |
| 2026-05-06 13:27 | 50.68989 | 9.95889 | 16580 ft | 299 kts | 227° |
| 2026-05-06 13:28 | 50.67606 | 9.93447 | 16214 ft | 298 kts | 227° |
| 2026-05-06 13:28 | 50.66228 | 9.91013 | 15845 ft | 297 kts | 227° |
| 2026-05-06 13:28 | 50.64855 | 9.88589 | 15482 ft | 296 kts | 227° |
| 2026-05-06 13:28 | 50.63484 | 9.86179 | 15125 ft | 295 kts | 227° |
| 2026-05-06 13:29 | 50.62117 | 9.83778 | 14764 ft | 294 kts | 227° |
| 2026-05-06 13:29 | 50.60755 | 9.81380 | 14418 ft | 294 kts | 228° |
| 2026-05-06 13:29 | 50.59394 | 9.78981 | 14053 ft | 294 kts | 228° |
| 2026-05-06 13:29 | 50.58033 | 9.76589 | 13693 ft | 293 kts | 228° |
| 2026-05-06 13:30 | 50.56668 | 9.74203 | 13301 ft | 293 kts | 228° |
| 2026-05-06 13:30 | 50.55308 | 9.71825 | 12926 ft | 291 kts | 228° |
| 2026-05-06 13:30 | 50.53956 | 9.69462 | 12562 ft | 290 kts | 228° |
| 2026-05-06 13:30 | 50.52616 | 9.67116 | 12189 ft | 287 kts | 228° |
| 2026-05-06 13:31 | 50.51289 | 9.64804 | 11791 ft | 283 kts | 228° |
| 2026-05-06 13:31 | 50.49977 | 9.62520 | 11436 ft | 280 kts | 228° |
| 2026-05-06 13:31 | 50.48684 | 9.60250 | 11065 ft | 278 kts | 230° |
| 2026-05-06 13:31 | 50.47604 | 9.57747 | 10794 ft | 276 kts | 242° |
| 2026-05-06 13:32 | 50.46906 | 9.55002 | 10678 ft | 266 kts | 251° |
| 2026-05-06 13:32 | 50.46388 | 9.52265 | 10553 ft | 257 kts | 252° |
| 2026-05-06 13:32 | 50.45895 | 9.49631 | 10426 ft | 246 kts | 252° |
| 2026-05-06 13:32 | 50.45417 | 9.47092 | 10151 ft | 241 kts | 252° |
| 2026-05-06 13:33 | 50.44943 | 9.44589 | 9765 ft | 239 kts | 252° |
| 2026-05-06 13:33 | 50.44467 | 9.42095 | 9423 ft | 237 kts | 251° |
| 2026-05-06 13:33 | 50.43996 | 9.39615 | 9291 ft | 238 kts | 251° |
| 2026-05-06 13:33 | 50.43519 | 9.37122 | 9157 ft | 239 kts | 252° |
| 2026-05-06 13:34 | 50.43043 | 9.34628 | 9029 ft | 238 kts | 251° |
| 2026-05-06 13:34 | 50.42570 | 9.32147 | 8893 ft | 237 kts | 252° |
| 2026-05-06 13:34 | 50.42100 | 9.29672 | 8754 ft | 236 kts | 251° |
| 2026-05-06 13:34 | 50.41633 | 9.27220 | 8418 ft | 233 kts | 251° |
| 2026-05-06 13:35 | 50.41169 | 9.24787 | 7998 ft | 233 kts | 251° |
| 2026-05-06 13:35 | 50.40632 | 9.22394 | 7640 ft | 232 kts | 248° |
| 2026-05-06 13:35 | 50.40077 | 9.20028 | 7277 ft | 231 kts | 248° |
| 2026-05-06 13:35 | 50.39524 | 9.17671 | 6931 ft | 230 kts | 248° |
| 2026-05-06 13:36 | 50.38975 | 9.15326 | 6770 ft | 229 kts | 248° |
| 2026-05-06 13:36 | 50.38427 | 9.12979 | 6762 ft | 230 kts | 248° |
| 2026-05-06 13:36 | 50.37878 | 9.10623 | 6759 ft | 230 kts | 248° |
| 2026-05-06 13:36 | 50.37325 | 9.08267 | 6753 ft | 230 kts | 245° |
| 2026-05-06 13:37 | 50.36356 | 9.06327 | 6757 ft | 229 kts | 214° |
| 2026-05-06 13:37 | 50.34867 | 9.05515 | 6762 ft | 231 kts | 186° |
| 2026-05-06 13:37 | 50.33256 | 9.05415 | 6761 ft | 232 kts | 184° |
| 2026-05-06 13:37 | 50.31644 | 9.05338 | 6761 ft | 232 kts | 184° |
| 2026-05-06 13:38 | 50.30030 | 9.05261 | 6757 ft | 232 kts | 184° |
| 2026-05-06 13:38 | 50.28415 | 9.05186 | 6758 ft | 233 kts | 184° |
| 2026-05-06 13:38 | 50.26804 | 9.05103 | 6530 ft | 231 kts | 184° |
| 2026-05-06 13:38 | 50.25202 | 9.05026 | 6199 ft | 229 kts | 184° |
| 2026-05-06 13:39 | 50.23616 | 9.04947 | 5855 ft | 227 kts | 184° |
| 2026-05-06 13:39 | 50.22045 | 9.04871 | 5569 ft | 221 kts | 184° |
| 2026-05-06 13:39 | 50.20560 | 9.04819 | 5390 ft | 207 kts | 184° |
| 2026-05-06 13:39 | 50.19129 | 9.04701 | 5122 ft | 204 kts | 194° |
| 2026-05-06 13:40 | 50.17920 | 9.03687 | 4842 ft | 198 kts | 223° |
| 2026-05-06 13:40 | 50.16919 | 9.02200 | 4521 ft | 199 kts | 224° |
| 2026-05-06 13:40 | 50.15917 | 9.00702 | 4218 ft | 199 kts | 224° |
| 2026-05-06 13:40 | 50.14933 | 8.99235 | 3957 ft | 198 kts | 224° |
| 2026-05-06 13:41 | 50.13940 | 8.97746 | 3748 ft | 197 kts | 224° |
| 2026-05-06 13:41 | 50.12986 | 8.96227 | 3717 ft | 198 kts | 234° |
| 2026-05-06 13:41 | 50.12363 | 8.94299 | 3726 ft | 201 kts | 248° |
| 2026-05-06 13:41 | 50.11906 | 8.92236 | 3728 ft | 202 kts | 251° |
| 2026-05-06 13:42 | 50.11459 | 8.90204 | 3716 ft | 192 kts | 249° |
| 2026-05-06 13:42 | 50.11026 | 8.88333 | 3744 ft | 176 kts | 248° |
| 2026-05-06 13:42 | 50.10618 | 8.86585 | 3720 ft | 169 kts | 249° |
| 2026-05-06 13:42 | 50.10215 | 8.84874 | 3724 ft | 168 kts | 249° |
| 2026-05-06 13:43 | 50.09813 | 8.83180 | 3614 ft | 166 kts | 248° |
| 2026-05-06 13:43 | 50.09420 | 8.81519 | 3438 ft | 164 kts | 249° |
| 2026-05-06 13:43 | 50.09022 | 8.79833 | 3232 ft | 165 kts | 249° |
| 2026-05-06 13:43 | 50.08627 | 8.78158 | 3015 ft | 165 kts | 249° |
| 2026-05-06 13:44 | 50.08230 | 8.76478 | 2793 ft | 166 kts | 249° |
| 2026-05-06 13:44 | 50.07832 | 8.74792 | 2572 ft | 165 kts | 249° |
| 2026-05-06 13:44 | 50.07440 | 8.73134 | 2353 ft | 161 kts | 249° |
| 2026-05-06 13:44 | 50.07060 | 8.71529 | 2141 ft | 153 kts | 249° |
| 2026-05-06 13:45 | 50.06708 | 8.70041 | 1933 ft | 140 kts | 249° |
| 2026-05-06 13:45 | 50.06358 | 8.67293 | 1620 ft | 123 kts | 271° |
| 2026-05-06 13:45 | 50.06263 | 8.65999 | 1360 ft | 119 kts | 251° |
| 2026-05-06 13:46 | 50.05967 | 8.64820 | 1214 ft | 117 kts | 250° |
| 2026-05-06 13:46 | 50.05690 | 8.63621 | 1063 ft | 119 kts | 248° |
| 2026-05-06 13:46 | 50.05403 | 8.62407 | 861 ft | 119 kts | 246° |
| 2026-05-06 13:46 | 50.05109 | 8.61218 | 744 ft | 117 kts | 249° |
| 2026-05-06 13:47 | 50.04833 | 8.60031 | 574 ft | 116 kts | 246° |
| 2026-05-06 13:47 | 50.04553 | 8.58864 | 426 ft | 118 kts | 248° |
| 2026-05-06 13:47 | 50.04273 | 8.57693 | 363 ft | 103 kts | 249° |
| 2026-05-06 13:47 | 50.04082 | 8.56893 | 360 ft | 55 kts | 250° |
| 2026-05-06 13:48 | 50.03995 | 8.56499 | 358 ft | 27 kts | 261° |
| 2026-05-06 13:48 | 50.04007 | 8.56243 | 351 ft | 22 kts | 279° |
| 2026-05-06 13:48 | 50.04015 | 8.56170 | 354 ft | 0 kts | 281° |
| 2026-05-06 13:49 | 50.04019 | 8.56158 | 352 ft | 4 kts | 297° |
| 2026-05-06 13:49 | 50.04027 | 8.56147 | 357 ft | 3 kts | 319° |
| 2026-05-06 13:49 | 50.04071 | 8.56128 | 351 ft | 8 kts | 9° |
| 2026-05-06 13:50 | 50.04103 | 8.56179 | 354 ft | 7 kts | 68° |
| 2026-05-06 13:50 | 50.04122 | 8.56259 | 354 ft | 10 kts | 71° |
| 2026-05-06 13:50 | 50.04149 | 8.56375 | 356 ft | 13 kts | 69° |
| 2026-05-06 13:50 | 50.04184 | 8.56517 | 361 ft | 15 kts | 70° |
| 2026-05-06 13:51 | 50.04222 | 8.56679 | 357 ft | 16 kts | 70° |
| 2026-05-06 13:51 | 50.04278 | 8.56806 | 359 ft | 14 kts | 21° |
| 2026-05-06 13:51 | 50.04377 | 8.56837 | 360 ft | 16 kts | 10° |
| 2026-05-06 13:51 | 50.04467 | 8.56900 | 359 ft | 15 kts | 62° |
| 2026-05-06 13:52 | 50.04511 | 8.57078 | 357 ft | 20 kts | 69° |
| 2026-05-06 13:52 | 50.04556 | 8.57269 | 357 ft | 19 kts | 70° |
| 2026-05-06 13:52 | 50.04604 | 8.57467 | 364 ft | 21 kts | 70° |
| 2026-05-06 13:52 | 50.04657 | 8.57688 | 359 ft | 23 kts | 70° |
| 2026-05-06 13:53 | 50.04706 | 8.57881 | 359 ft | 17 kts | 59° |
| 2026-05-06 13:53 | 50.04780 | 8.57991 | 358 ft | 14 kts | 47° |
| 2026-05-06 13:53 | 50.04823 | 8.58135 | 362 ft | 15 kts | 70° |
| 2026-05-06 13:53 | 50.04850 | 8.58255 | 362 ft | 9 kts | 73° |
| 2026-05-06 13:54 | 50.04822 | 8.58321 | 361 ft | 8 kts | 159° |
| 2026-05-06 13:54 | 50.04786 | 8.58341 | 362 ft | 0 kts | 159° |
| 2026-05-06 13:54 | 50.04783 | 8.58343 | 362 ft | 0 kts | 159° |